URSSUWSS

Guest
Details From URSS - Sochi
To UWSS - Tsentralny
Flight Number -
Tags Generated
Created
Modified
Stats Distance 547 nm / 1,014 km
Max Altitude 0 ft / 0 m
Waypoints 3
Social Downloads 0
Likes 0
Share VATSIM

Download

Looking for another format? Having issues loading an existing format? Contact us
Advertisement - Login to hide

Notes

Generated

Route

URSS UWSS UWSS

ID Type Via Altitude Latitude Longitude Leg Dist Tot Dist Heading (true) Name
O URSS APT - 0 ft / 0 m 43.43576˚ 39.94578˚ - 0 nm - Sochi
UWSS FIX - 0 ft / 0 m 51.56500˚ 46.04500˚ 546 nm 546 nm 25° / 29° -
O UWSS APT - 0 ft / 0 m 51.57167˚ 46.03333˚ 0 nm 547 nm 313° / 313° -

Altitude Profile

Advertisement - Login to hide

Weather


0- 5 10 15 20 25 30 35+ Temperature / ° C

Clouds and Precipitation
Forecast for 2018-05-22 00:00 UTC. Updated 5 hours ago

Ground ~20,000 ft ~40,000 ft Winds

URSS

Details ICAO URSS (AER)
Name Sochi
Region Russia
Timezone Europe/Moscow (UTC+3.0)
Stats Elevation 89 ft / 27 m (AMSL)
Location 43.444749° 39.947302°
Runways 2
Magnetic Variation 7.002° E

METAR

URSS 220430Z 05002MPS 9999 SCT020 19/16 Q1018 R02/090070 R06/090070 NOSIG RMK R06/08002MPS MT OBSC QFE762

Decode

TAF

TAF URSS 220156Z 2203/2303 05005MPS 9999 SCT030 SCT100 TEMPO 2203/2206 SCT011 BECMG 2206/2207 24005G10MPS SCT030CB SCT100 TEMPO 2209/2216 VRB06G11MPS -TSRA BECMG 2216/2217 05005MPS BKN015 BKN030CB

Decode

Departure Runways

ID Width Length Bearing (true) Bearing (mag) Surface Threshold Offset Overrun Length
02 161 ft / 49 m 7,267 ft / 2,215 m 28.98° 21.98° Concrete 0 ft / 0 m 0 ft / 0 m
06 164 ft / 50 m 9,531 ft / 2,905 m 64.90° 57.90° Concrete 262 ft / 80 m 0 ft / 0 m
20 161 ft / 49 m 7,267 ft / 2,215 m 208.99° 201.99° Concrete 0 ft / 0 m 0 ft / 0 m
24 164 ft / 50 m 9,531 ft / 2,905 m 244.92° 237.92° Concrete 0 ft / 0 m 0 ft / 0 m

UWSS

Details ICAO UWSS (RTW)
Name TSENTRALNY
Region Russia
Timezone Europe/Volgograd (UTC+3.0)
Stats Elevation 499 ft / 152 m (AMSL)
Location 51.565833° 46.046667°
Runways 1
Magnetic Variation 10.676° E

METAR

UWSS 220430Z 07007MPS CAVOK 15/08 Q1027 R12/010095 NOSIG RMK QFE758

Decode

TAF

Not found

Destination Runways

ID Width Length Bearing (true) Bearing (mag) Surface Threshold Offset Overrun Length
12 138 ft / 42 m 7,397 ft / 2,255 m 125.13° 114.45° Asphalt 0 ft / 0 m 95 ft / 29 m
30 138 ft / 42 m 7,397 ft / 2,255 m 305.15° 294.47° Asphalt 0 ft / 0 m 95 ft / 29 m

Approach Navaids

Runway Type Ident Frequency Range Bearing (true) Bearing (mag) Slope Elevation
12 Localiser IOH 110.50 MHz 18 nm / 33 km 127.14° 116.46° - 499 ft / 152 m (AMSL)
12 Glidescope IOH 110.50 MHz 10 nm / 19 km 125.14° 114.46° 3.00° 499 ft / 152 m (AMSL)
30 Localiser IDK 109.10 MHz 18 nm / 33 km 305.55° 294.88° - 499 ft / 152 m (AMSL)
30 Glidescope IDK 109.10 MHz 10 nm / 19 km 305.14° 294.46° 2.80° 499 ft / 152 m (AMSL)

Popular Alternatives